createdAt,value
2018-12-24T00:04:03.423Z,93.10
2018-12-24T00:06:48.079Z,93.10
2018-12-24T00:09:32.747Z,93.00
2018-12-24T00:12:17.396Z,92.70
2018-12-24T00:15:02.056Z,92.90
2018-12-24T00:17:47.024Z,92.70
2018-12-24T00:20:31.568Z,92.40
2018-12-24T00:23:27.591Z,92.50
2018-12-24T00:26:12.355Z,92.40
2018-12-24T00:28:56.703Z,92.50
2018-12-24T00:31:41.663Z,92.50
2018-12-24T00:34:26.003Z,92.60
2018-12-24T00:37:19.063Z,92.60
2018-12-24T00:40:03.736Z,92.50
2018-12-24T00:42:48.183Z,92.60
2018-12-24T00:45:32.816Z,93.00
2018-12-24T00:48:25.959Z,93.40
2018-12-24T00:51:10.725Z,93.50
2018-12-24T00:53:55.270Z,93.50
2018-12-24T00:56:39.641Z,93.80
2018-12-24T00:59:32.695Z,94.30
2018-12-24T01:02:17.175Z,93.90
2018-12-24T01:05:01.915Z,93.90
2018-12-24T01:07:46.795Z,94.10
2018-12-24T01:10:32.062Z,93.90
2018-12-24T01:13:16.879Z,93.90
2018-12-24T01:16:01.547Z,93.90
2018-12-24T01:18:46.479Z,93.60
2018-12-24T01:21:31.682Z,93.50
2018-12-24T01:24:16.692Z,93.50
2018-12-24T01:27:11.013Z,93.40
2018-12-24T01:30:04.432Z,93.30
2018-12-24T01:32:49.571Z,93.40
2018-12-24T01:35:34.908Z,93.50
2018-12-24T01:38:28.231Z,93.10
2018-12-24T01:41:12.487Z,93.50
2018-12-24T01:43:57.971Z,93.50
2018-12-24T01:46:42.680Z,93.40
2018-12-24T01:49:27.808Z,93.40
2018-12-24T01:52:21.532Z,93.30
2018-12-24T01:55:06.139Z,93.50
2018-12-24T01:57:50.536Z,93.80
2018-12-24T02:00:35.630Z,94.10
2018-12-24T02:03:20.016Z,94.40
2018-12-24T02:06:05.334Z,94.50
2018-12-24T02:08:50.684Z,94.80
2018-12-24T02:11:45.680Z,95.10
2018-12-24T02:14:30.836Z,94.90
2018-12-24T02:17:15.731Z,95.00
2018-12-24T02:20:00.631Z,95.30
2018-12-24T02:22:45.801Z,91.50
2018-12-24T02:25:31.054Z,87.10
2018-12-24T02:28:24.715Z,88.30
2018-12-24T02:31:09.778Z,88.90
2018-12-24T02:34:03.459Z,90.00
2018-12-24T02:36:47.991Z,90.20
2018-12-24T02:39:31.487Z,90.20
2018-12-24T02:45:50.676Z,90.70
2018-12-24T02:48:35.664Z,91.20
2018-12-24T02:51:29.856Z,91.10
2018-12-24T02:54:26.480Z,91.20
2018-12-24T02:57:11.357Z,91.30
2018-12-24T02:59:56.283Z,91.30
2018-12-24T03:02:49.892Z,91.20
2018-12-24T03:05:34.191Z,91.60
2018-12-24T03:08:19.159Z,91.30
2018-12-24T03:11:03.976Z,91.20
2018-12-24T03:13:49.111Z,91.00
2018-12-24T03:16:33.811Z,91.10
2018-12-24T03:19:19.027Z,91.80
2018-12-24T03:22:03.317Z,91.40
2018-12-24T03:24:48.593Z,91.80
2018-12-24T03:27:33.850Z,91.60
2018-12-24T03:30:27.643Z,91.60
2018-12-24T03:33:21.878Z,91.80
2018-12-24T03:36:15.420Z,92.00
2018-12-24T03:39:00.424Z,92.10
2018-12-24T03:41:45.560Z,92.20
2018-12-24T03:44:39.104Z,92.20
2018-12-24T03:47:24.182Z,91.90
2018-12-24T03:50:17.793Z,91.90
2018-12-24T03:53:02.812Z,92.00
2018-12-24T03:55:47.954Z,91.80
2018-12-24T03:58:41.772Z,91.50
2018-12-24T04:01:27.432Z,92.00
2018-12-24T04:04:12.524Z,92.10
2018-12-24T04:06:57.543Z,92.20
2018-12-24T04:09:43.227Z,92.40
2018-12-24T04:12:28.255Z,91.30
2018-12-24T04:15:13.192Z,90.20
2018-12-24T04:17:58.331Z,90.20
2018-12-24T04:20:43.200Z,90.30
2018-12-24T04:23:28.155Z,90.20
2018-12-24T04:26:13.257Z,90.00
2018-12-24T04:29:07.245Z,90.10
2018-12-24T04:32:04.523Z,90.60
2018-12-24T04:34:49.527Z,91.20
2018-12-24T04:37:34.357Z,91.40
2018-12-24T04:40:19.600Z,91.50
2018-12-24T04:43:05.063Z,91.50
2018-12-24T04:45:49.863Z,91.50
2018-12-24T04:48:35.088Z,91.20
2018-12-24T04:51:20.643Z,91.10
2018-12-24T04:54:14.152Z,91.20
2018-12-24T04:56:59.492Z,91.10
2018-12-24T04:59:52.765Z,90.90
2018-12-24T05:02:37.644Z,90.80
2018-12-24T05:05:22.836Z,91.10
2018-12-24T05:08:07.799Z,91.20
2018-12-24T05:11:01.416Z,91.30
2018-12-24T05:13:46.447Z,90.80
2018-12-24T05:16:31.655Z,90.90
2018-12-24T05:19:25.247Z,91.10
2018-12-24T05:22:10.380Z,90.80
2018-12-24T05:25:07.152Z,91.00
2018-12-24T05:28:01.387Z,91.00
2018-12-24T05:30:55.195Z,90.50
2018-12-24T05:33:40.180Z,88.70
2018-12-24T05:36:33.632Z,88.00
2018-12-24T05:39:18.916Z,88.50
2018-12-24T05:42:12.655Z,87.50
2018-12-24T05:44:57.792Z,87.70
2018-12-24T05:47:51.676Z,87.60
2018-12-24T05:50:36.588Z,87.70
2018-12-24T05:53:20.855Z,87.40
2018-12-24T05:56:05.723Z,87.00
2018-12-24T05:58:50.547Z,86.40
2018-12-24T06:01:35.839Z,87.10
2018-12-24T06:04:30.028Z,87.10
2018-12-24T06:07:24.103Z,87.50
2018-12-24T06:10:17.923Z,87.30
2018-12-24T06:13:02.688Z,87.60
2018-12-24T06:15:47.455Z,87.30
2018-12-24T06:18:32.803Z,87.30
2018-12-24T06:21:26.972Z,88.00
2018-12-24T06:24:20.672Z,87.10
2018-12-24T06:27:14.813Z,87.40
2018-12-24T06:30:08.383Z,86.90
2018-12-24T06:32:53.556Z,86.80
2018-12-24T06:35:47.187Z,86.90
2018-12-24T06:38:32.603Z,87.60
2018-12-24T06:41:27.883Z,87.70
2018-12-24T06:44:12.528Z,87.30
2018-12-24T06:46:57.545Z,88.20
2018-12-24T06:49:42.599Z,87.00
2018-12-24T06:52:27.401Z,87.30
2018-12-24T06:55:12.595Z,87.80
2018-12-24T06:58:06.812Z,88.00
2018-12-24T07:01:00.353Z,87.60
2018-12-24T07:03:45.243Z,88.00
2018-12-24T07:06:31.637Z,88.10
2018-12-24T07:09:16.891Z,88.40
2018-12-24T07:12:10.271Z,87.70
2018-12-24T07:14:55.299Z,87.00
2018-12-24T07:17:40.539Z,86.50
2018-12-24T07:20:34.185Z,87.10
2018-12-24T07:23:19.080Z,86.20
2018-12-24T07:26:12.853Z,86.60
2018-12-24T07:28:59.208Z,85.40
2018-12-24T07:31:44.011Z,86.00
2018-12-24T07:34:32.351Z,84.10
2018-12-24T07:37:15.133Z,83.30
2018-12-24T07:40:00.180Z,83.90
2018-12-24T07:42:45.175Z,83.30
2018-12-24T07:45:38.943Z,82.80
2018-12-24T07:48:23.860Z,83.30
2018-12-24T07:51:08.787Z,81.10
2018-12-24T07:54:03.163Z,81.10
2018-12-24T07:56:56.932Z,82.10
2018-12-24T07:59:41.955Z,83.20
2018-12-24T08:02:35.879Z,82.20
2018-12-24T08:05:29.788Z,81.50
2018-12-24T08:08:14.675Z,80.70
2018-12-24T08:10:59.904Z,80.30
2018-12-24T08:13:53.343Z,81.00
2018-12-24T08:16:38.467Z,81.20
2018-12-24T08:19:32.795Z,80.40
2018-12-24T08:22:26.228Z,80.70
2018-12-24T08:25:10.796Z,80.60
2018-12-24T08:27:55.798Z,79.20
2018-12-24T08:30:41.087Z,81.50
2018-12-24T08:33:35.346Z,82.00
2018-12-24T08:36:28.815Z,81.20
2018-12-24T08:39:14.412Z,80.60
2018-12-24T08:41:59.211Z,79.30
2018-12-24T08:44:44.699Z,79.40
2018-12-24T08:47:30.328Z,79.60
2018-12-24T08:50:23.871Z,80.60
2018-12-24T08:53:17.671Z,80.60
2018-12-24T08:56:03.075Z,80.50
2018-12-24T08:58:56.736Z,81.50
2018-12-24T09:01:41.789Z,81.70
2018-12-24T09:04:37.606Z,82.30
2018-12-24T09:07:22.548Z,83.10
2018-12-24T09:10:07.239Z,83.00
2018-12-24T09:12:51.707Z,82.90
2018-12-24T09:15:45.132Z,83.50
2018-12-24T09:18:30.424Z,83.70
2018-12-24T09:21:25.167Z,84.60
2018-12-24T09:24:10.012Z,84.20
2018-12-24T09:26:55.676Z,83.70
2018-12-24T09:30:09.227Z,83.50
2018-12-24T09:32:54.051Z,82.10
2018-12-24T09:35:39.269Z,82.40
2018-12-24T09:38:34.996Z,82.80
2018-12-24T09:41:28.539Z,82.30
2018-12-24T09:44:13.352Z,82.10
2018-12-24T09:46:58.287Z,83.00
2018-12-24T09:49:41.803Z,83.30
2018-12-24T09:52:36.136Z,83.40
2018-12-24T09:55:29.733Z,83.20
2018-12-24T09:58:14.526Z,82.00
2018-12-24T10:01:00.035Z,81.60
2018-12-24T10:03:45.091Z,81.40
2018-12-24T10:06:29.551Z,80.40
2018-12-24T10:09:14.623Z,79.30
2018-12-24T10:11:59.559Z,79.40
2018-12-24T10:14:44.491Z,79.10
2018-12-24T10:17:29.768Z,78.40
2018-12-24T10:20:23.904Z,75.30
2018-12-24T10:23:17.572Z,77.70
2018-12-24T10:26:02.639Z,75.70
2018-12-24T10:28:47.283Z,74.30
2018-12-24T10:31:32.063Z,74.80
2018-12-24T10:34:17.239Z,74.80
2018-12-24T10:37:11.476Z,75.10
2018-12-24T10:40:04.972Z,76.70
2018-12-24T10:42:49.736Z,77.20
2018-12-24T10:45:34.529Z,77.40
2018-12-24T10:48:19.691Z,77.50
2018-12-24T10:51:13.596Z,77.90
2018-12-24T10:53:58.336Z,78.70
2018-12-24T10:56:43.152Z,79.20
2018-12-24T10:59:27.967Z,78.60
2018-12-24T11:02:13.535Z,77.90
2018-12-24T11:05:08.539Z,78.30
2018-12-24T11:08:02.361Z,77.00
2018-12-24T11:10:47.870Z,77.50
2018-12-24T11:13:41.831Z,78.00
2018-12-24T11:16:35.228Z,76.40
2018-12-24T11:19:20.096Z,76.70
2018-12-24T11:22:04.916Z,76.30
2018-12-24T11:24:50.935Z,76.30
2018-12-24T11:27:35.970Z,77.10
2018-12-24T11:30:21.291Z,77.10
2018-12-24T11:33:15.008Z,78.10
2018-12-24T11:35:59.295Z,79.10
2018-12-24T11:38:44.023Z,79.40
2018-12-24T11:41:28.988Z,79.20
2018-12-24T11:44:13.627Z,78.90
2018-12-24T11:46:58.683Z,78.40
2018-12-24T11:49:51.344Z,77.80
2018-12-24T11:52:35.578Z,79.60
2018-12-24T11:55:28.908Z,79.70
2018-12-24T11:58:13.664Z,79.50
2018-12-24T12:01:11.191Z,81.00
2018-12-24T12:03:56.506Z,79.20
2018-12-24T12:06:50.580Z,79.00
2018-12-24T12:09:44.153Z,79.20
2018-12-24T12:12:28.904Z,80.30
2018-12-24T12:15:13.732Z,81.20
2018-12-24T12:17:59.135Z,80.70
2018-12-24T12:20:55.000Z,78.00
2018-12-24T12:23:48.585Z,76.40
2018-12-24T12:26:33.759Z,76.50
2018-12-24T12:29:27.256Z,77.50
2018-12-24T12:32:11.998Z,76.90
2018-12-24T12:34:58.083Z,77.80
2018-12-24T12:37:42.991Z,77.10
2018-12-24T12:40:28.249Z,77.50
2018-12-24T12:43:22.476Z,77.40
2018-12-24T12:46:16.790Z,78.10
2018-12-24T12:49:10.251Z,78.60
2018-12-24T12:51:54.780Z,79.90
2018-12-24T12:54:40.468Z,79.80
2018-12-24T12:57:34.098Z,79.70
2018-12-24T13:00:19.763Z,78.50
2018-12-24T13:03:04.147Z,79.40
2018-12-24T13:05:58.180Z,79.40
2018-12-24T13:08:51.916Z,78.80
2018-12-24T13:11:36.615Z,79.00
2018-12-24T13:14:21.664Z,79.50
2018-12-24T13:17:15.484Z,79.00
2018-12-24T13:20:00.341Z,76.50
2018-12-24T13:22:55.652Z,75.00
2018-12-24T13:25:40.475Z,73.10
2018-12-24T13:28:24.980Z,72.60
2018-12-24T13:31:09.495Z,70.30
2018-12-24T13:33:54.527Z,70.60
2018-12-24T13:36:39.771Z,72.00
2018-12-24T13:39:33.296Z,71.40
2018-12-24T13:42:18.300Z,72.20
2018-12-24T13:45:03.235Z,72.30
2018-12-24T13:47:48.427Z,73.30
2018-12-24T13:50:42.261Z,73.00
2018-12-24T13:53:41.913Z,73.00
2018-12-24T13:56:22.265Z,72.80
2018-12-24T13:59:07.424Z,73.00
2018-12-24T14:01:52.343Z,74.00
2018-12-24T14:04:46.011Z,74.40
2018-12-24T14:07:31.589Z,74.00
2018-12-24T14:10:25.436Z,74.40
2018-12-24T14:13:18.908Z,74.40
2018-12-24T14:16:03.884Z,75.50
2018-12-24T14:18:48.519Z,74.80
2018-12-24T14:21:33.839Z,75.10
2018-12-24T14:24:28.357Z,77.10
2018-12-24T14:27:13.331Z,75.20
2018-12-24T14:29:58.051Z,77.00
2018-12-24T14:32:42.763Z,78.50
2018-12-24T14:35:27.943Z,78.00
2018-12-24T14:38:13.235Z,77.40
2018-12-24T14:40:58.390Z,79.10
2018-12-24T14:43:52.475Z,78.90
2018-12-24T14:46:46.348Z,80.60
2018-12-24T14:49:40.472Z,81.80
2018-12-24T14:52:33.959Z,82.00
2018-12-24T14:55:18.639Z,83.10
2018-12-24T14:58:03.747Z,82.60
2018-12-24T15:00:49.047Z,82.10
2018-12-24T15:03:43.460Z,82.10
2018-12-24T15:06:36.640Z,82.60
2018-12-24T15:09:22.128Z,83.90
2018-12-24T15:12:16.340Z,85.40
2018-12-24T15:15:09.691Z,86.70
2018-12-24T15:17:54.591Z,87.30
2018-12-24T15:20:40.271Z,88.30
2018-12-24T15:23:25.592Z,89.30
2018-12-24T15:26:10.679Z,90.00
2018-12-24T15:28:56.039Z,90.00
2018-12-24T15:31:49.171Z,90.00
2018-12-24T15:34:34.047Z,89.90
2018-12-24T15:37:19.195Z,88.40
2018-12-24T15:40:04.006Z,85.40
2018-12-24T15:42:49.131Z,82.80
2018-12-24T15:45:42.756Z,81.90
2018-12-24T15:48:27.424Z,81.20
2018-12-24T15:51:11.919Z,80.00
2018-12-24T15:53:56.680Z,78.80
2018-12-24T15:56:41.644Z,79.90
2018-12-24T15:59:26.643Z,81.20
2018-12-24T16:02:11.445Z,81.90
2018-12-24T16:04:56.535Z,81.30
2018-12-24T16:07:50.531Z,81.60
2018-12-24T16:10:35.969Z,80.10
2018-12-24T16:13:21.232Z,79.90
2018-12-24T16:16:06.352Z,80.10
2018-12-24T16:18:51.640Z,80.80
2018-12-24T16:21:44.878Z,80.60
2018-12-24T16:24:29.836Z,80.00
2018-12-24T16:27:15.295Z,79.30
2018-12-24T16:30:09.348Z,78.90
2018-12-24T16:33:02.720Z,79.20
2018-12-24T16:35:47.899Z,78.90
2018-12-24T16:38:32.193Z,79.50
2018-12-24T16:41:17.511Z,81.50
2018-12-24T16:44:02.695Z,84.20
2018-12-24T16:46:59.522Z,84.90
2018-12-24T16:49:52.312Z,85.20
2018-12-24T16:52:45.583Z,84.10
2018-12-24T16:55:30.404Z,83.50
2018-12-24T16:58:14.952Z,83.10
2018-12-24T17:00:59.439Z,82.40
2018-12-24T17:03:44.814Z,83.10
2018-12-24T17:06:29.436Z,84.20
2018-12-24T17:09:14.472Z,85.90
2018-12-24T17:11:59.431Z,88.20
2018-12-24T17:14:44.312Z,89.80
2018-12-24T17:17:29.875Z,90.20
2018-12-24T17:20:14.931Z,90.40
2018-12-24T17:22:59.516Z,90.40
2018-12-24T17:25:44.513Z,90.60
2018-12-24T17:28:29.608Z,90.60
2018-12-24T17:31:14.559Z,90.50
2018-12-24T17:33:59.175Z,90.00
2018-12-24T17:36:44.126Z,88.90
2018-12-24T17:39:28.399Z,88.10
2018-12-24T17:42:13.307Z,86.70
2018-12-24T17:45:08.144Z,84.80
2018-12-24T17:48:02.070Z,84.50
2018-12-24T17:50:47.446Z,83.50
2018-12-24T17:53:41.076Z,82.80
2018-12-24T17:56:25.919Z,82.70
2018-12-24T17:59:22.444Z,82.90
2018-12-24T18:02:06.985Z,83.60
2018-12-24T18:04:51.679Z,82.80
2018-12-24T18:07:36.588Z,82.10
2018-12-24T18:10:21.403Z,81.60
2018-12-24T18:13:05.943Z,81.70
2018-12-24T18:15:51.007Z,81.90
2018-12-24T18:18:35.790Z,82.40
2018-12-24T18:21:21.180Z,82.40
2018-12-24T18:24:14.995Z,82.80
2018-12-24T18:27:08.647Z,83.70
2018-12-24T18:29:53.501Z,83.70
2018-12-24T18:32:38.617Z,83.60
2018-12-24T18:35:32.386Z,83.70
2018-12-24T18:38:16.771Z,83.20
2018-12-24T18:41:01.828Z,82.80
2018-12-24T18:43:46.564Z,82.80
2018-12-24T18:46:31.394Z,82.50
2018-12-24T18:49:17.295Z,83.50
2018-12-24T18:52:02.073Z,83.40
2018-12-24T18:54:47.163Z,82.70
2018-12-24T18:57:32.209Z,82.40
2018-12-24T19:00:16.843Z,82.60
2018-12-24T19:03:02.408Z,81.50
2018-12-24T19:05:56.216Z,81.30
2018-12-24T19:08:41.120Z,82.20
2018-12-24T19:11:36.980Z,81.40
2018-12-24T19:14:30.788Z,82.20
2018-12-24T19:17:26.691Z,82.90
2018-12-24T19:20:20.138Z,82.40
2018-12-24T19:23:05.112Z,82.80
2018-12-24T19:25:50.065Z,81.20
2018-12-24T19:28:43.940Z,81.40
2018-12-24T19:31:28.883Z,81.30
2018-12-24T19:34:22.947Z,81.80
2018-12-24T19:37:17.255Z,80.90
2018-12-24T19:40:10.826Z,81.10
2018-12-24T19:42:55.548Z,81.20
2018-12-24T19:45:40.043Z,81.00
2018-12-24T19:48:24.700Z,81.20
2018-12-24T19:51:10.230Z,81.60
2018-12-24T19:54:04.315Z,81.30
2018-12-24T19:56:57.891Z,81.30
2018-12-24T19:59:42.663Z,81.00
2018-12-24T20:02:27.786Z,80.80
2018-12-24T20:05:12.591Z,80.10
2018-12-24T20:07:56.969Z,79.80
2018-12-24T20:10:41.483Z,80.30
2018-12-24T20:13:26.334Z,79.80
2018-12-24T20:16:10.658Z,79.10
2018-12-24T20:19:04.587Z,79.80
2018-12-24T20:21:58.268Z,79.60
2018-12-24T20:24:43.066Z,79.50
2018-12-24T20:27:27.351Z,80.10
2018-12-24T20:30:12.200Z,79.10
2018-12-24T20:32:57.107Z,78.50
2018-12-24T20:35:42.051Z,78.30
2018-12-24T20:38:26.735Z,80.00
2018-12-24T20:41:11.163Z,79.80
2018-12-24T20:43:56.018Z,79.20
2018-12-24T20:46:50.739Z,79.70
2018-12-24T20:49:35.456Z,79.10
2018-12-24T20:52:20.319Z,78.20
2018-12-24T20:55:05.333Z,77.60
2018-12-24T20:57:58.964Z,77.90
2018-12-24T21:00:43.774Z,77.70
2018-12-24T21:03:28.301Z,78.00
2018-12-24T21:06:13.498Z,78.90
2018-12-24T21:08:58.167Z,78.50
2018-12-24T21:11:43.515Z,78.50
2018-12-24T21:14:37.459Z,78.20
2018-12-24T21:17:31.436Z,78.20
2018-12-24T21:20:16.332Z,78.60
2018-12-24T21:23:10.000Z,79.10
2018-12-24T21:25:54.925Z,78.40
2018-12-24T21:28:40.379Z,77.80
2018-12-24T21:31:34.129Z,77.10
2018-12-24T21:34:28.299Z,76.80
2018-12-24T21:37:22.008Z,76.80
2018-12-24T21:40:06.936Z,76.80
2018-12-24T21:43:00.976Z,77.40
2018-12-24T21:45:46.159Z,77.60
2018-12-24T21:48:39.651Z,77.60
2018-12-24T21:51:24.428Z,78.30
2018-12-24T21:54:09.292Z,77.60
2018-12-24T21:56:53.815Z,78.00
2018-12-24T21:59:38.932Z,78.00
2018-12-24T22:02:23.507Z,78.00
2018-12-24T22:05:08.520Z,78.00
2018-12-24T22:07:53.231Z,78.20
2018-12-24T22:10:37.624Z,78.10
2018-12-24T22:13:22.220Z,78.80
2018-12-24T22:16:06.882Z,79.20
2018-12-24T22:18:51.239Z,78.90
2018-12-24T22:21:45.055Z,78.20
2018-12-24T22:24:29.992Z,78.30
2018-12-24T22:27:23.800Z,79.20
2018-12-24T22:30:08.917Z,79.50
2018-12-24T22:33:03.732Z,79.00
2018-12-24T22:35:49.056Z,79.50
2018-12-24T22:38:33.947Z,80.60
2018-12-24T22:41:18.590Z,80.20
2018-12-24T22:44:03.146Z,79.80
2018-12-24T22:46:48.187Z,79.80
2018-12-24T22:49:33.223Z,80.10
2018-12-24T22:52:26.747Z,80.00
2018-12-24T22:55:11.507Z,80.30
2018-12-24T22:57:56.227Z,80.10
2018-12-24T23:04:12.714Z,79.60
2018-12-24T23:06:57.080Z,79.90
2018-12-24T23:09:42.296Z,79.60
2018-12-24T23:12:27.031Z,79.60
2018-12-24T23:15:12.127Z,80.10
2018-12-24T23:18:06.444Z,80.80
2018-12-24T23:21:00.339Z,82.10
2018-12-24T23:23:54.224Z,82.90
2018-12-24T23:26:39.488Z,83.60
2018-12-24T23:29:24.512Z,84.30
2018-12-24T23:32:09.271Z,84.60
2018-12-24T23:34:54.416Z,84.80
2018-12-24T23:37:39.441Z,84.80
2018-12-24T23:40:24.251Z,85.00
2018-12-24T23:43:09.284Z,85.50
2018-12-24T23:45:54.449Z,86.00
2018-12-24T23:48:47.763Z,86.30
2018-12-24T23:51:33.063Z,86.80
2018-12-24T23:54:18.440Z,87.10
2018-12-24T23:57:03.703Z,87.30
2018-12-24T23:59:48.895Z,88.00
